Time;durP1;ratioP1;P1;durP2;ratioP2;P2;SDS_P1;SDS_P2;PMS_P1;PMS_P2;Temp;Humidity;BMP_temperature;BMP_pressure;BME280_temperature;BME280_humidity;BME280_pressure;Samples;Min_cycle;Max_cycle;Signal;HPM_P1;HPM_P2
2021/12/06 11:39:41;;;;;;;41.05;20.38;;;;;;;;;;5090936;28;20788;-62
2021/12/06 11:42:07;;;;;;;41.80;21.17;;;2.90;99.90;;;;;;5090015;28;20488;-60
2021/12/06 11:44:35;;;;;;;43.95;19.83;;;3.10;99.90;;;;;;5091274;28;20055;-63
2021/12/06 11:47:08;;;;;;;41.20;21.90;;;3.50;99.90;;;;;;5090879;28;20048;-63
2021/12/06 11:49:41;;;;;;;46.30;22.05;;;3.10;99.90;;;;;;5090008;28;20048;-63
2021/12/06 11:52:11;;;;;;;40.22;22.27;;;3.10;99.90;;;;;;5089598;28;20044;-60
2021/12/06 11:54:52;;;;;;;43.10;21.95;;;3.10;99.90;;;;;;5089794;28;20050;-60
2021/12/06 11:57:30;;;;;;;42.85;21.92;;;3.10;99.90;;;;;;5090768;28;20079;-61
2021/12/06 12:00:11;;;;;;;43.83;21.88;;;2.70;99.90;;;;;;5091173;28;20082;-61
2021/12/06 12:02:43;;;;;;;46.10;22.40;;;3.00;99.90;;;;;;5086949;28;20044;-61
2021/12/06 12:05:31;;;;;;;42.63;21.30;;;4.60;99.90;;;;;;5080548;28;20050;-62
2021/12/06 12:08:14;;;;;;;44.83;21.83;;;2.90;99.90;;;;;;5081102;28;20430;-61
2021/12/06 12:10:47;;;;;;;48.13;23.13;;;2.90;99.90;;;;;;5080567;28;20542;-61
2021/12/06 12:13:35;;;;;;;54.60;24.58;;;2.90;99.90;;;;;;5080979;28;20045;-61
2021/12/06 12:16:07;;;;;;;53.20;25.67;;;2.70;99.90;;;;;;5081076;28;20051;-62
2021/12/06 12:18:36;;;;;;;59.88;26.52;;;3.00;99.90;;;;;;5078648;28;20380;-61
2021/12/06 12:21:02;;;;;;;65.10;31.10;;;3.00;99.90;;;;;;5079777;28;20048;-61
2021/12/06 12:23:34;;;;;;;60.83;27.27;;;3.10;99.90;;;;;;5078248;28;20045;-61
2021/12/06 12:26:07;;;;;;;58.63;26.75;;;3.00;99.90;;;;;;5078878;28;20124;-61
2021/12/06 12:28:39;;;;;;;60.88;28.73;;;3.10;99.90;;;;;;5084603;28;20554;-61
2021/12/06 12:31:11;;;;;;;64.93;29.02;;;3.10;99.90;;;;;;5072987;28;20487;-60
2021/12/06 12:33:38;;;;;;;59.20;26.95;;;3.10;99.90;;;;;;5077700;28;20106;-61
2021/12/06 12:36:11;;;;;;;62.78;27.83;;;4.00;99.90;;;;;;5079141;28;20564;-61
2021/12/06 12:38:38;;;;;;;61.30;28.67;;;3.40;99.90;;;;;;5087287;28;20084;-60
2021/12/06 12:41:10;;;;;;;61.33;28.85;;;3.20;99.90;;;;;;5090137;28;20048;-61
2021/12/06 12:43:59;;;;;;;56.80;27.65;;;3.20;99.90;;;;;;5089928;28;20506;-61
2021/12/06 12:46:35;;;;;;;65.78;28.60;;;3.10;99.90;;;;;;5090540;28;20044;-60
2021/12/06 12:49:04;;;;;;;63.08;28.48;;;3.20;99.90;;;;;;5086551;28;20442;-61
2021/12/06 12:51:36;;;;;;;61.38;28.15;;;3.20;99.90;;;;;;5075067;28;20053;-62
2021/12/06 12:54:10;;;;;;;57.30;27.88;;;3.20;99.90;;;;;;5076231;28;20052;-61
2021/12/06 12:56:41;;;;;;;53.95;27.23;;;3.20;99.90;;;;;;5076377;28;20048;-60
2021/12/06 12:59:33;;;;;;;57.85;26.55;;;4.40;99.90;;;;;;5075362;28;20091;-60
2021/12/06 13:02:27;;;;;;;53.83;26.05;;;3.40;99.90;;;;;;5075350;28;20048;-61
2021/12/06 13:05:15;;;;;;;63.72;27.13;;;3.40;99.90;;;;;;5076115;28;20123;-60
2021/12/06 13:07:41;;;;;;;58.72;27.77;;;3.40;99.90;;;;;;5075113;28;20052;-60
2021/12/06 13:10:22;;;;;;;;;;;4.00;99.90;;;;;;5073682;28;20055;-60
2021/12/06 13:13:06;;;;;;;57.13;26.67;;;3.40;99.90;;;;;;5064767;28;19928;-60
2021/12/06 13:15:51;;;;;;;58.17;28.00;;;3.40;99.90;;;;;;5068235;28;20123;-61
2021/12/06 13:18:33;;;;;;;57.15;27.33;;;3.40;99.90;;;;;;5076018;28;20052;-60
2021/12/06 13:21:41;;;;;;;58.47;27.70;;;3.40;99.90;;;;;;5074820;28;20101;-60
2021/12/06 13:24:33;;;;;;;57.15;27.10;;;3.40;99.90;;;;;;5075923;28;20129;-60
2021/12/06 13:27:02;;;;;;;54.50;26.30;;;3.40;99.90;;;;;;5076312;28;20426;-60
2021/12/06 13:29:49;;;;;;;53.40;26.33;;;3.50;99.90;;;;;;5075670;28;20084;-61
2021/12/06 13:32:33;;;;;;;55.03;27.25;;;3.40;99.90;;;;;;5074602;28;20044;-60
2021/12/06 13:35:35;;;;;;;55.85;27.27;;;3.30;99.90;;;;;;5075896;28;20048;-61
2021/12/06 13:38:12;;;;;;;58.00;27.48;;;3.30;99.90;;;;;;5072005;28;20103;-60
2021/12/06 13:40:56;;;;;;;52.80;27.35;;;3.30;99.90;;;;;;5064618;28;20064;-61
2021/12/06 13:43:28;;;;;;;54.33;28.02;;;3.20;99.90;;;;;;5065904;28;20051;-62
2021/12/06 13:46:01;;;;;;;52.17;25.25;;;2.90;99.90;;;;;;5064100;28;20037;-61
2021/12/06 13:48:34;;;;;;;51.22;26.70;;;5.60;99.90;;;;;;5072405;28;20071;-61
2021/12/06 13:51:02;;;;;;;52.30;26.38;;;3.20;99.90;;;;;;5073291;28;20123;-62
2021/12/06 13:53:35;;;;;;;52.30;26.52;;;3.20;99.90;;;;;;5075258;28;20041;-61
2021/12/06 13:56:06;;;;;;;51.00;25.73;;;3.20;99.90;;;;;;5075233;28;20049;-61
2021/12/06 13:58:32;;;;;;;55.45;26.95;;;3.30;99.90;;;;;;5074985;28;20053;-62
2021/12/06 14:01:02;;;;;;;56.05;27.13;;;3.20;99.90;;;;;;5073174;28;20049;-60
2021/12/06 14:03:39;;;;;;;51.67;25.65;;;3.20;99.90;;;;;;5074660;28;20040;-60
2021/12/06 14:06:11;;;;;;;53.35;27.80;;;3.20;99.90;;;;;;5073837;28;20127;-60
2021/12/06 14:08:47;;;;;;;54.75;26.65;;;3.30;99.90;;;;;;5074563;28;20080;-61
2021/12/06 14:11:31;;;;;;;53.83;26.58;;;3.10;99.90;;;;;;5062246;28;20544;-60
2021/12/06 14:13:58;;;;;;;54.78;26.58;;;3.20;99.90;;;;;;5055621;28;20117;-60
2021/12/06 14:16:29;;;;;;;57.53;27.40;;;2.80;99.90;;;;;;5054742;28;20462;-60
2021/12/06 14:18:55;;;;;;;56.65;28.27;;;;;;;;;;5054894;28;20055;-60
2021/12/06 14:21:21;;;;;;;52.63;27.48;;;;;;;;;;5055155;28;20049;-61
2021/12/06 14:23:48;;;;;;;49.85;25.52;;;3.10;99.90;;;;;;5054545;28;20132;-60
2021/12/06 14:26:15;;;;;;;54.33;27.50;;;3.20;99.90;;;;;;5054516;28;20060;-60
2021/12/06 14:28:45;;;;;;;52.47;26.52;;;3.20;99.90;;;;;;5054465;28;20389;-60
2021/12/06 14:31:12;;;;;;;57.95;26.00;;;;;;;;;;5053542;28;20478;-60
2021/12/06 14:33:38;;;;;;;50.88;25.88;;;;;;;;;;5054500;28;20056;-60
2021/12/06 14:36:06;;;;;;;51.33;24.90;;;3.10;99.90;;;;;;5054932;28;20049;-60
2021/12/06 14:38:34;;;;;;;56.13;26.80;;;3.10;99.90;;;;;;5054959;28;20372;-61
2021/12/06 14:41:02;;;;;;;58.63;28.48;;;3.20;99.90;;;;;;5054841;28;20103;-60
2021/12/06 14:43:28;;;;;;;52.53;25.60;;;;;;;;;;5054272;28;20399;-60
2021/12/06 14:46:02;;;;;;;54.97;25.50;;;3.20;99.90;;;;;;5053885;28;20465;-60
2021/12/06 14:48:30;;;;;;;53.67;25.38;;;;;;;;;;5054176;28;20059;-62
2021/12/06 14:51:06;;;;;;;51.58;25.95;;;3.20;99.90;;;;;;5054236;28;20053;-62
2021/12/06 14:53:57;;;;;;;57.70;26.00;;;3.20;99.90;;;;;;5054708;28;20041;-63
2021/12/06 14:58:55;;;;;;;62.20;28.52;;;3.20;99.90;;;;;;5054399;28;20060;-62
2021/12/06 15:01:31;;;;;;;63.53;29.33;;;3.20;99.90;;;;;;5053984;28;20056;-60
2021/12/06 15:04:14;;;;;;;64.93;27.73;;;3.80;99.90;;;;;;5066965;28;20048;-61
2021/12/06 15:06:41;;;;;;;65.90;28.23;;;3.20;99.90;;;;;;5068975;28;20275;-60
2021/12/06 15:09:10;;;;;;;;;;;3.20;99.90;;;;;;5070745;28;20127;-61
2021/12/06 15:11:36;;;;;;;65.93;28.98;;;3.20;99.90;;;;;;5059048;28;19924;-61
2021/12/06 15:14:10;;;;;;;64.80;29.15;;;3.20;99.90;;;;;;5053569;28;20053;-63
2021/12/06 15:16:37;;;;;;;69.13;29.75;;;4.10;99.90;;;;;;5053725;28;20049;-61
2021/12/06 15:19:11;;;;;;;75.63;32.05;;;3.20;99.90;;;;;;5053554;28;20082;-62
2021/12/06 15:21:37;;;;;;;67.47;29.10;;;;;;;;;;5052719;28;20477;-60
2021/12/06 15:24:04;;;;;;;;;;;3.20;99.90;;;;;;5054038;28;20048;-61
2021/12/06 15:26:40;;;;;;;64.78;30.58;;;3.20;99.90;;;;;;5053636;28;19920;-61
2021/12/06 15:29:08;;;;;;;70.75;31.60;;;3.30;99.90;;;;;;5052563;28;20049;-61
2021/12/06 15:31:34;;;;;;;68.45;31.60;;;4.20;99.90;;;;;;5053749;28;20370;-60
2021/12/06 15:34:00;;;;;;;67.65;31.33;;;3.20;99.90;;;;;;5053580;28;20043;-60
2021/12/06 15:36:27;;;;;;;76.05;29.45;;;3.20;99.90;;;;;;5053502;28;20049;-62
2021/12/06 15:39:00;;;;;;;74.22;31.65;;;5.10;99.90;;;;;;5052879;28;20056;-61
2021/12/06 15:41:32;;;;;;;70.95;28.02;;;2.80;99.90;;;;;;5054081;28;20063;-62
2021/12/06 15:44:04;;;;;;;69.60;31.00;;;4.80;99.90;;;;;;5052494;28;20057;-61
2021/12/06 15:46:33;;;;;;;72.53;29.88;;;3.30;99.90;;;;;;5053457;28;20124;-61
2021/12/06 15:49:01;;;;;;;58.70;25.98;;;3.30;99.90;;;;;;5053358;28;20045;-60
2021/12/06 15:51:46;;;;;;;54.55;24.95;;;3.30;99.90;;;;;;5052710;28;20131;-60
2021/12/06 15:54:17;;;;;;;50.50;25.05;;;3.30;99.90;;;;;;5054045;28;20390;-62
2021/12/06 15:56:43;;;;;;;51.47;25.38;;;3.30;99.90;;;;;;5052648;28;20098;-62
2021/12/06 15:59:14;;;;;;;45.85;22.40;;;2.30;99.90;;;;;;5053212;28;20040;-62
2021/12/06 16:01:44;;;;;;;45.03;23.13;;;3.30;99.90;;;;;;5053294;28;20056;-61
2021/12/06 16:04:13;;;;;;;44.22;22.83;;;3.30;99.90;;;;;;5052856;28;20045;-61
2021/12/06 16:06:40;;;;;;;38.72;19.83;;;3.30;99.90;;;;;;5061956;28;20049;-61
2021/12/06 16:09:16;;;;;;;39.67;21.55;;;3.30;99.90;;;;;;5073179;28;20056;-62
2021/12/06 16:11:44;;;;;;;38.15;20.90;;;3.30;99.90;;;;;;5057823;28;20059;-62
2021/12/06 16:14:12;;;;;;;38.95;19.52;;;3.20;99.90;;;;;;5052979;28;20045;-62
2021/12/06 16:16:43;;;;;;;36.22;20.10;;;3.30;99.90;;;;;;5053155;28;20140;-61
2021/12/06 16:19:13;;;;;;;40.33;21.77;;;3.20;99.90;;;;;;5053163;28;20052;-62
2021/12/06 16:21:42;;;;;;;35.38;20.40;;;3.20;99.90;;;;;;5052717;28;20049;-61
2021/12/06 16:24:08;;;;;;;38.75;19.77;;;;;;;;;;5052971;28;20178;-61
2021/12/06 16:26:38;;;;;;;35.65;18.58;;;3.20;99.90;;;;;;5056909;28;20056;-61
2021/12/06 16:29:10;;;;;;;37.42;20.88;;;3.20;99.90;;;;;;5056684;28;20048;-60
2021/12/06 16:31:38;;;;;;;38.90;22.05;;;3.30;99.90;;;;;;5056807;28;20509;-62
2021/12/06 16:34:17;;;;;;;37.28;21.83;;;3.60;99.90;;;;;;5056762;28;20543;-62
2021/12/06 16:36:47;;;;;;;39.13;21.85;;;3.20;99.90;;;;;;5056779;28;20061;-62
2021/12/06 16:39:20;;;;;;;36.05;21.17;;;3.30;99.90;;;;;;5055220;28;20095;-63
2021/12/06 16:41:50;;;;;;;36.97;19.92;;;3.20;99.90;;;;;;5056852;28;20064;-62
2021/12/06 16:44:23;;;;;;;35.70;19.83;;;3.30;99.90;;;;;;5056493;28;20048;-63
2021/12/06 16:46:53;;;;;;;31.67;19.88;;;3.20;99.90;;;;;;5056201;28;20468;-63
2021/12/06 16:49:45;;;;;;;32.13;19.15;;;3.20;99.90;;;;;;5056397;28;20111;-63
2021/12/06 16:52:29;;;;;;;34.50;19.10;;;3.30;99.90;;;;;;5070063;28;20049;-62
2021/12/06 16:55:17;;;;;;;28.13;18.63;;;3.20;99.90;;;;;;5076285;28;20050;-62
2021/12/06 16:57:53;;;;;;;27.80;16.13;;;3.50;99.90;;;;;;5077109;28;20435;-62
2021/12/06 17:00:28;;;;;;;29.35;18.63;;;3.10;99.90;;;;;;5076248;28;20094;-64
2021/12/06 17:03:25;;;;;;;31.92;19.10;;;3.10;99.90;;;;;;5076272;28;20136;-61
2021/12/06 17:05:56;;;;;;;26.95;17.98;;;3.10;99.90;;;;;;5061113;28;20055;-62
2021/12/06 17:08:36;;;;;;;28.40;18.55;;;3.10;99.90;;;;;;5065677;28;20567;-63
2021/12/06 17:11:19;;;;;;;29.85;18.50;;;3.10;99.90;;;;;;5065564;28;20499;-62
2021/12/06 17:13:52;;;;;;;27.77;16.83;;;3.10;99.90;;;;;;5064541;28;20182;-61
2021/12/06 17:16:24;;;;;;;29.23;18.75;;;4.40;99.90;;;;;;5063170;28;20045;-62
2021/12/06 17:18:51;;;;;;;32.95;19.88;;;3.10;99.90;;;;;;5065140;28;20044;-62
2021/12/06 17:21:20;;;;;;;31.80;19.95;;;3.10;99.90;;;;;;5064106;28;20045;-61
2021/12/06 17:23:48;;;;;;;31.38;19.70;;;3.10;99.90;;;;;;5055831;28;20048;-62
2021/12/06 17:26:20;;;;;;;33.15;18.25;;;2.90;99.90;;;;;;5054662;28;20045;-63
2021/12/06 17:29:04;;;;;;;32.00;19.55;;;3.00;99.90;;;;;;5064775;28;20060;-62
2021/12/06 17:31:38;;;;;;;31.25;19.77;;;3.10;99.90;;;;;;5066272;28;20072;-62
2021/12/06 17:34:10;;;;;;;31.00;19.60;;;3.50;99.90;;;;;;5068777;28;20170;-62
2021/12/06 17:36:43;;;;;;;33.53;20.02;;;3.00;99.90;;;;;;5065587;28;20075;-63
2021/12/06 17:39:11;;;;;;;31.02;19.67;;;3.00;99.90;;;;;;5069573;28;20056;-62
2021/12/06 17:41:39;;;;;;;32.50;19.80;;;3.00;99.90;;;;;;5075451;28;20485;-61
2021/12/06 17:44:07;;;;;;;32.00;19.33;;;3.00;99.90;;;;;;5074421;28;20088;-62
2021/12/06 17:46:35;;;;;;;33.05;20.02;;;3.00;99.90;;;;;;5073885;28;20480;-62
2021/12/06 17:49:03;;;;;;;44.30;26.60;;;3.00;99.90;;;;;;5075213;28;20059;-61
2021/12/06 17:51:29;;;;;;;38.78;24.52;;;3.00;99.90;;;;;;5075300;28;20059;-62
2021/12/06 17:53:57;;;;;;;33.75;20.63;;;3.00;99.90;;;;;;5075229;28;20045;-62
2021/12/06 17:56:25;;;;;;;34.22;21.38;;;3.00;99.90;;;;;;5066654;28;20044;-63
2021/12/06 18:01:22;;;;;;;35.08;20.60;;;3.00;99.90;;;;;;5074145;28;20443;-62
2021/12/06 18:03:47;;;;;;;34.95;20.20;;;3.20;99.90;;;;;;5074296;28;20084;-62
2021/12/06 18:06:13;;;;;;;31.75;19.50;;;3.00;99.90;;;;;;5073899;28;20076;-62
2021/12/06 18:08:39;;;;;;;33.67;20.15;;;3.00;99.90;;;;;;5073934;28;20500;-62
2021/12/06 18:11:05;;;;;;;33.30;20.35;;;2.90;99.90;;;;;;5063397;28;20052;-62
2021/12/06 18:13:32;;;;;;;34.30;20.75;;;3.50;99.90;;;;;;5054856;28;20053;-61
2021/12/06 18:15:58;;;;;;;36.03;21.45;;;2.90;99.90;;;;;;5058842;28;20452;-62
2021/12/06 18:18:24;;;;;;;38.42;23.92;;;2.90;99.90;;;;;;5073073;28;20083;-64
2021/12/06 18:20:51;;;;;;;36.80;21.88;;;2.90;99.90;;;;;;5056244;28;20147;-63
2021/12/06 18:23:19;;;;;;;35.95;20.95;;;3.00;99.90;;;;;;5064980;28;20456;-61
2021/12/06 18:25:45;;;;;;;35.08;20.48;;;2.90;99.90;;;;;;5064467;28;20143;-62
2021/12/06 18:28:14;;;;;;;36.30;20.58;;;3.00;99.90;;;;;;5063082;28;20049;-61
2021/12/06 18:30:41;;;;;;;34.17;20.35;;;2.90;99.90;;;;;;5063150;28;20045;-62
2021/12/06 18:33:07;;;;;;;36.45;20.30;;;3.00;99.90;;;;;;5064287;28;20393;-61
2021/12/06 18:35:33;;;;;;;36.38;20.33;;;2.90;99.90;;;;;;5063619;28;20040;-63
2021/12/06 18:38:16;;;;;;;35.17;20.25;;;3.30;99.90;;;;;;5069038;28;20055;-67
2021/12/06 18:40:50;;;;;;;36.65;21.13;;;3.00;99.90;;;;;;5067705;28;20118;-63
2021/12/06 18:43:47;;;;;;;36.38;21.45;;;3.00;99.90;;;;;;5068489;28;20477;-61
2021/12/06 18:46:18;;;;;;;36.45;20.70;;;2.90;99.90;;;;;;5065887;28;20051;-62
2021/12/06 18:48:49;;;;;;;36.55;20.58;;;3.00;99.90;;;;;;5064087;28;20049;-63
2021/12/06 18:51:16;;;;;;;35.75;21.15;;;3.00;99.90;;;;;;5063420;28;20041;-63
2021/12/06 18:53:46;;;;;;;34.70;20.27;;;3.00;99.90;;;;;;5063068;28;20421;-61
2021/12/06 18:56:12;;;;;;;31.25;19.80;;;3.00;99.90;;;;;;5062836;28;20045;-63
2021/12/06 18:58:38;;;;;;;34.75;20.67;;;3.30;99.90;;;;;;5063493;28;20040;-62
2021/12/06 19:01:08;;;;;;;34.65;20.92;;;3.00;99.90;;;;;;5062895;28;20408;-62
2021/12/06 19:03:34;;;;;;;35.15;20.00;;;3.00;99.90;;;;;;5052672;28;20059;-60
2021/12/06 19:06:00;;;;;;;32.08;19.65;;;3.00;99.90;;;;;;5040899;28;20045;-61
2021/12/06 19:08:26;;;;;;;32.78;19.30;;;3.00;99.90;;;;;;5052881;28;20171;-62
2021/12/06 19:10:52;;;;;;;31.25;18.83;;;3.00;99.90;;;;;;5052882;28;20048;-61
2021/12/06 19:13:18;;;;;;;31.50;19.20;;;3.00;99.90;;;;;;5054557;28;20448;-61
2021/12/06 19:15:44;;;;;;;30.02;19.55;;;3.00;99.90;;;;;;5069056;28;20044;-62
2021/12/06 19:18:12;;;;;;;32.15;19.02;;;3.80;99.90;;;;;;5073678;28;20036;-61
2021/12/06 19:20:42;;;;;;;30.17;19.17;;;3.10;99.90;;;;;;5073582;28;20044;-60
2021/12/06 19:23:09;;;;;;;30.95;18.33;;;3.10;99.90;;;;;;5073532;28;20049;-62
2021/12/06 19:25:40;;;;;;;30.15;19.45;;;3.10;99.90;;;;;;5073598;28;20080;-61
2021/12/06 19:28:13;;;;;;;30.30;17.90;;;3.10;99.90;;;;;;5074177;28;20048;-61
2021/12/06 19:30:40;;;;;;;29.55;16.95;;;;;;;;;;5066429;28;20044;-61
2021/12/06 19:33:08;;;;;;;29.10;17.77;;;3.10;99.90;;;;;;5063119;28;20119;-61
2021/12/06 19:35:36;;;;;;;30.35;17.98;;;3.10;99.90;;;;;;5070500;28;20056;-61
2021/12/06 19:38:02;;;;;;;27.98;16.17;;;;;;;;;;5073032;28;20061;-62
2021/12/06 19:40:29;;;;;;;29.13;17.33;;;;;;;;;;5073505;28;20052;-62
2021/12/06 19:42:55;;;;;;;30.88;18.30;;;3.10;99.90;;;;;;5072570;28;20480;-62
2021/12/06 19:45:22;;;;;;;28.83;16.92;;;3.20;99.90;;;;;;5073604;28;20374;-62
2021/12/06 19:47:48;;;;;;;30.30;17.90;;;3.20;99.90;;;;;;5072550;28;20080;-63
2021/12/06 19:50:16;;;;;;;28.95;18.25;;;3.20;99.90;;;;;;5055669;28;20086;-62
2021/12/06 19:52:42;;;;;;;29.60;17.98;;;3.20;99.90;;;;;;5073040;28;20489;-62
2021/12/06 19:55:08;;;;;;;;;;;3.30;99.90;;;;;;5057382;28;20049;-62
2021/12/06 19:57:35;;;;;;;28.20;18.40;;;3.20;99.90;;;;;;5053774;28;19943;-62
2021/12/06 20:00:04;;;;;;;29.23;18.23;;;3.20;99.90;;;;;;5054775;28;20052;-63
2021/12/06 20:02:30;;;;;;;29.75;18.02;;;3.20;99.90;;;;;;5057293;28;20040;-62
2021/12/06 20:04:55;;;;;;;28.08;17.50;;;3.20;99.90;;;;;;5056326;28;20103;-62
2021/12/06 20:07:21;;;;;;;28.42;18.00;;;3.70;99.90;;;;;;5058144;28;20052;-61
2021/12/06 20:09:47;;;;;;;30.27;18.60;;;3.10;99.90;;;;;;5057117;28;20106;-62
2021/12/06 20:12:14;;;;;;;27.02;17.42;;;3.50;99.90;;;;;;5057091;28;20390;-64
2021/12/06 20:14:44;;;;;;;26.17;16.73;;;3.10;99.90;;;;;;5057703;28;20048;-62
2021/12/06 20:17:12;;;;;;;27.92;17.40;;;3.20;99.90;;;;;;5058014;28;20063;-63
2021/12/06 20:19:37;;;;;;;30.58;18.23;;;3.40;99.90;;;;;;5056616;28;20163;-62
2021/12/06 20:22:03;;;;;;;29.70;16.92;;;3.20;99.90;;;;;;5056981;28;20112;-62
2021/12/06 20:24:29;;;;;;;27.98;17.70;;;3.20;99.90;;;;;;5056300;28;20117;-61
2021/12/06 20:26:55;;;;;;;29.45;16.75;;;3.20;99.90;;;;;;5056010;28;20052;-63
2021/12/06 20:29:20;;;;;;;25.00;16.27;;;3.20;99.90;;;;;;5056787;28;20045;-63
2021/12/06 20:31:46;;;;;;;26.15;16.38;;;3.20;99.90;;;;;;5057074;28;20397;-63
2021/12/06 20:34:21;;;;;;;27.23;16.92;;;3.00;99.90;;;;;;5055579;28;20053;-63
2021/12/06 20:37:15;;;;;;;26.67;16.25;;;3.10;99.90;;;;;;5056749;28;20041;-63
2021/12/06 20:39:49;;;;;;;27.90;17.05;;;3.10;99.90;;;;;;5045561;28;20099;-62
2021/12/06 20:42:15;;;;;;;29.52;18.08;;;3.10;99.90;;;;;;5056687;28;20490;-65
2021/12/06 20:44:41;;;;;;;25.10;16.52;;;3.10;99.90;;;;;;5055304;28;20083;-63
2021/12/06 20:47:07;;;;;;;25.98;16.05;;;3.10;99.90;;;;;;5056524;28;20403;-61
2021/12/06 20:49:33;;;;;;;26.13;15.40;;;3.10;99.90;;;;;;5056693;28;20041;-62
2021/12/06 20:51:59;;;;;;;26.25;16.00;;;3.00;99.90;;;;;;5056558;28;20056;-65
2021/12/06 20:54:25;;;;;;;25.75;15.65;;;3.00;99.90;;;;;;5055427;28;20052;-61
2021/12/06 20:56:50;;;;;;;26.30;15.63;;;3.20;99.90;;;;;;5055147;28;20118;-63
2021/12/06 20:59:22;;;;;;;26.08;16.15;;;2.90;99.90;;;;;;5054951;28;20076;-62
2021/12/06 21:01:49;;;;;;;25.15;16.33;;;2.90;99.90;;;;;;5055341;28;20048;-63
2021/12/06 21:04:15;;;;;;;23.65;15.30;;;2.90;99.90;;;;;;5061013;28;20186;-63
2021/12/06 21:06:41;;;;;;;27.65;15.85;;;2.90;99.90;;;;;;5064662;28;20068;-62
2021/12/06 21:09:13;;;;;;;25.65;16.33;;;2.90;99.90;;;;;;5065957;28;20423;-63
2021/12/06 21:11:48;;;;;;;22.15;14.80;;;2.90;99.90;;;;;;5065203;28;20537;-63
2021/12/06 21:14:36;;;;;;;22.80;15.07;;;2.90;99.90;;;;;;5066109;28;20127;-63
2021/12/06 21:17:00;;;;;;;23.17;15.02;;;2.90;99.90;;;;;;5066486;28;20052;-63
2021/12/06 21:19:28;;;;;;;27.77;15.88;;;2.90;99.90;;;;;;5064753;28;20480;-63
2021/12/06 21:21:53;;;;;;;23.70;15.82;;;2.90;99.90;;;;;;5064860;28;20517;-64
2021/12/06 21:24:19;;;;;;;26.48;16.15;;;2.90;99.90;;;;;;5070184;28;20135;-64
2021/12/06 21:26:45;;;;;;;27.10;15.65;;;2.90;99.90;;;;;;5074646;28;20045;-62
